sensor_id;sensor_type;location;lat;lon;timestamp;pressure;altitude;pressure_sealevel;temperature;humidity
48718;BME280;34521;33.042;-96.586;2023-05-20T00:01:03;99637.91;;;25.47;33.23
48718;BME280;34521;33.042;-96.586;2023-05-20T00:03:28;99664.28;;;23.41;35.94
48718;BME280;34521;33.042;-96.586;2023-05-20T00:05:53;99668.07;;;24.13;34.35
48718;BME280;34521;33.042;-96.586;2023-05-20T00:08:19;99645.02;;;23.70;34.93
48718;BME280;34521;33.042;-96.586;2023-05-20T00:10:43;99627.85;;;24.73;33.62
48718;BME280;34521;33.042;-96.586;2023-05-20T00:13:08;99610.27;;;24.92;33.54
48718;BME280;34521;33.042;-96.586;2023-05-20T00:15:33;99620.62;;;24.56;36.02
48718;BME280;34521;33.042;-96.586;2023-05-20T00:18:00;99623.03;;;24.96;35.29
48718;BME280;34521;33.042;-96.586;2023-05-20T00:20:23;99615.69;;;25.11;34.80
48718;BME280;34521;33.042;-96.586;2023-05-20T00:22:49;99608.85;;;25.31;34.54
48718;BME280;34521;33.042;-96.586;2023-05-20T00:25:14;99602.54;;;25.62;34.41
48718;BME280;34521;33.042;-96.586;2023-05-20T00:27:39;99589.34;;;25.17;34.70
48718;BME280;34521;33.042;-96.586;2023-05-20T00:30:04;99583.64;;;25.36;34.79
48718;BME280;34521;33.042;-96.586;2023-05-20T00:32:28;99581.11;;;25.26;34.63
48718;BME280;34521;33.042;-96.586;2023-05-20T00:34:57;99582.98;;;23.92;35.72
48718;BME280;34521;33.042;-96.586;2023-05-20T00:37:19;99585.63;;;23.97;34.56
48718;BME280;34521;33.042;-96.586;2023-05-20T00:39:44;99594.73;;;24.29;34.55
48718;BME280;34521;33.042;-96.586;2023-05-20T00:42:09;99604.20;;;24.67;34.03
48718;BME280;34521;33.042;-96.586;2023-05-20T00:44:34;99615.21;;;25.20;33.56
48718;BME280;34521;33.042;-96.586;2023-05-20T00:46:59;99615.45;;;25.47;33.41
48718;BME280;34521;33.042;-96.586;2023-05-20T00:49:24;99614.07;;;25.52;33.47
48718;BME280;34521;33.042;-96.586;2023-05-20T00:51:49;99603.44;;;25.12;33.85
48718;BME280;34521;33.042;-96.586;2023-05-20T00:54:14;99597.72;;;25.09;34.13
48718;BME280;34521;33.042;-96.586;2023-05-20T00:56:39;99601.62;;;25.11;34.14
48718;BME280;34521;33.042;-96.586;2023-05-20T00:59:04;99619.85;;;24.39;35.33
48718;BME280;34521;33.042;-96.586;2023-05-20T01:01:29;99617.40;;;24.41;34.87
48718;BME280;34521;33.042;-96.586;2023-05-20T01:03:54;99617.77;;;24.32;33.78
48718;BME280;34521;33.042;-96.586;2023-05-20T01:06:19;99617.81;;;24.04;33.41
48718;BME280;34521;33.042;-96.586;2023-05-20T01:08:44;99624.41;;;24.60;32.10
48718;BME280;34521;33.042;-96.586;2023-05-20T01:11:12;99615.80;;;23.62;32.85
48718;BME280;34521;33.042;-96.586;2023-05-20T01:13:40;99605.21;;;24.67;32.21
48718;BME280;34521;33.042;-96.586;2023-05-20T01:16:00;99598.00;;;24.78;32.41
48718;BME280;34521;33.042;-96.586;2023-05-20T01:18:25;99595.61;;;24.90;32.06
48718;BME280;34521;33.042;-96.586;2023-05-20T01:20:51;99597.42;;;24.85;32.26
48718;BME280;34521;33.042;-96.586;2023-05-20T01:23:14;99605.36;;;24.80;32.44
48718;BME280;34521;33.042;-96.586;2023-05-20T01:25:39;99602.48;;;25.23;32.05
48718;BME280;34521;33.042;-96.586;2023-05-20T01:28:05;99604.19;;;23.32;34.10
48718;BME280;34521;33.042;-96.586;2023-05-20T01:30:34;99608.34;;;23.10;33.50
48718;BME280;34521;33.042;-96.586;2023-05-20T01:32:59;99609.21;;;23.64;33.09
48718;BME280;34521;33.042;-96.586;2023-05-20T01:35:21;99604.96;;;23.88;32.88
48718;BME280;34521;33.042;-96.586;2023-05-20T01:37:45;99603.88;;;24.34;32.35
48718;BME280;34521;33.042;-96.586;2023-05-20T01:40:13;99607.34;;;24.61;32.24
48718;BME280;34521;33.042;-96.586;2023-05-20T01:42:35;99618.58;;;25.02;31.89
48718;BME280;34521;33.042;-96.586;2023-05-20T01:45:00;99620.50;;;25.28;31.71
48718;BME280;34521;33.042;-96.586;2023-05-20T01:47:25;99625.93;;;25.43;31.66
48718;BME280;34521;33.042;-96.586;2023-05-20T01:49:50;99621.69;;;22.85;34.32
48718;BME280;34521;33.042;-96.586;2023-05-20T01:52:15;99625.85;;;23.25;33.44
48718;BME280;34521;33.042;-96.586;2023-05-20T01:54:40;99625.64;;;22.83;33.51
48718;BME280;34521;33.042;-96.586;2023-05-20T01:57:05;99621.55;;;24.08;32.65
48718;BME280;34521;33.042;-96.586;2023-05-20T01:59:30;99620.13;;;24.26;32.21
48718;BME280;34521;33.042;-96.586;2023-05-20T02:01:55;99615.73;;;24.78;31.80
48718;BME280;34521;33.042;-96.586;2023-05-20T02:04:20;99624.07;;;24.99;31.64
48718;BME280;34521;33.042;-96.586;2023-05-20T02:06:45;99625.86;;;25.19;31.48
48718;BME280;34521;33.042;-96.586;2023-05-20T02:09:10;99626.84;;;25.22;31.52
48718;BME280;34521;33.042;-96.586;2023-05-20T02:11:35;99631.59;;;22.53;34.39
48718;BME280;34521;33.042;-96.586;2023-05-20T02:14:00;99638.35;;;23.24;33.09
48718;BME280;34521;33.042;-96.586;2023-05-20T02:16:25;99646.40;;;23.04;32.89
48718;BME280;34521;33.042;-96.586;2023-05-20T02:18:50;99654.16;;;23.54;32.74
48718;BME280;34521;33.042;-96.586;2023-05-20T02:21:15;99661.26;;;23.99;32.17
48718;BME280;34521;33.042;-96.586;2023-05-20T02:23:40;99664.12;;;24.50;31.81
48718;BME280;34521;33.042;-96.586;2023-05-20T02:26:05;99677.38;;;24.70;31.64
48718;BME280;34521;33.042;-96.586;2023-05-20T02:28:30;99688.48;;;24.87;31.53
48718;BME280;34521;33.042;-96.586;2023-05-20T02:30:56;99695.99;;;24.78;31.76
48718;BME280;34521;33.042;-96.586;2023-05-20T02:33:20;99705.26;;;25.18;31.45
48718;BME280;34521;33.042;-96.586;2023-05-20T02:35:45;99699.64;;;24.97;32.51
48718;BME280;34521;33.042;-96.586;2023-05-20T02:38:11;99700.29;;;23.38;33.72
48718;BME280;34521;33.042;-96.586;2023-05-20T02:40:36;99700.26;;;22.99;33.17
48718;BME280;34521;33.042;-96.586;2023-05-20T02:43:02;99710.94;;;22.96;33.66
48718;BME280;34521;33.042;-96.586;2023-05-20T02:45:26;99720.70;;;23.88;32.17
48718;BME280;34521;33.042;-96.586;2023-05-20T02:47:51;99719.01;;;24.30;32.10
48718;BME280;34521;33.042;-96.586;2023-05-20T02:50:16;99717.14;;;24.59;31.91
48718;BME280;34521;33.042;-96.586;2023-05-20T02:52:41;99712.08;;;24.62;31.61
48718;BME280;34521;33.042;-96.586;2023-05-20T02:55:07;99706.22;;;24.75;31.54
48718;BME280;34521;33.042;-96.586;2023-05-20T02:57:31;99712.91;;;24.81;31.56
48718;BME280;34521;33.042;-96.586;2023-05-20T02:59:56;99722.21;;;25.02;31.44
48718;BME280;34521;33.042;-96.586;2023-05-20T03:02:21;99724.79;;;22.73;34.22
48718;BME280;34521;33.042;-96.586;2023-05-20T03:04:46;99724.62;;;22.72;33.60
48718;BME280;34521;33.042;-96.586;2023-05-20T03:07:11;99718.39;;;22.90;32.62
48718;BME280;34521;33.042;-96.586;2023-05-20T03:09:36;99721.37;;;23.65;32.69
48718;BME280;34521;33.042;-96.586;2023-05-20T03:12:01;99735.02;;;24.29;32.11
48718;BME280;34521;33.042;-96.586;2023-05-20T03:14:26;99749.52;;;22.56;35.84
48718;BME280;34521;33.042;-96.586;2023-05-20T03:16:52;99756.52;;;24.05;33.44
48718;BME280;34521;33.042;-96.586;2023-05-20T03:19:16;99768.94;;;24.57;33.28
48718;BME280;34521;33.042;-96.586;2023-05-20T03:21:41;99779.84;;;24.41;32.90
48718;BME280;34521;33.042;-96.586;2023-05-20T03:24:06;99784.80;;;24.25;32.77
48718;BME280;34521;33.042;-96.586;2023-05-20T03:26:31;99787.46;;;24.74;32.49
48718;BME280;34521;33.042;-96.586;2023-05-20T03:28:56;99786.44;;;24.94;32.24
48718;BME280;34521;33.042;-96.586;2023-05-20T03:31:21;99790.93;;;25.08;32.06
48718;BME280;34521;33.042;-96.586;2023-05-20T03:33:46;99796.67;;;22.46;35.23
48718;BME280;34521;33.042;-96.586;2023-05-20T03:36:12;99813.46;;;23.07;33.35
48718;BME280;34521;33.042;-96.586;2023-05-20T03:38:36;99836.47;;;23.44;33.51
48718;BME280;34521;33.042;-96.586;2023-05-20T03:41:02;99844.73;;;24.10;32.75
48718;BME280;34521;33.042;-96.586;2023-05-20T03:43:27;99855.98;;;23.93;32.49
48718;BME280;34521;33.042;-96.586;2023-05-20T03:45:52;99851.85;;;24.49;32.21
48718;BME280;34521;33.042;-96.586;2023-05-20T03:48:17;99881.28;;;24.24;32.26
48718;BME280;34521;33.042;-96.586;2023-05-20T03:50:42;99891.63;;;24.54;32.27
48718;BME280;34521;33.042;-96.586;2023-05-20T03:53:07;99885.14;;;24.67;31.91
48718;BME280;34521;33.042;-96.586;2023-05-20T03:55:32;99878.58;;;25.05;31.82
48718;BME280;34521;33.042;-96.586;2023-05-20T03:57:57;99876.82;;;25.24;31.70
48718;BME280;34521;33.042;-96.586;2023-05-20T04:00:22;99868.55;;;25.18;31.55
48718;BME280;34521;33.042;-96.586;2023-05-20T04:02:47;99866.40;;;22.29;34.82
48718;BME280;34521;33.042;-96.586;2023-05-20T04:05:12;99857.40;;;22.88;33.68
48718;BME280;34521;33.042;-96.586;2023-05-20T04:07:37;99854.77;;;23.30;33.40
48718;BME280;34521;33.042;-96.586;2023-05-20T04:10:02;99860.58;;;23.63;32.91
48718;BME280;34521;33.042;-96.586;2023-05-20T04:12:27;99859.04;;;22.19;36.55
48718;BME280;34521;33.042;-96.586;2023-05-20T04:14:52;99848.23;;;24.11;33.81
48718;BME280;34521;33.042;-96.586;2023-05-20T04:17:17;99839.26;;;24.22;33.82
48718;BME280;34521;33.042;-96.586;2023-05-20T04:19:42;99840.50;;;24.20;33.28
48718;BME280;34521;33.042;-96.586;2023-05-20T04:22:07;99841.14;;;24.37;33.06
48718;BME280;34521;33.042;-96.586;2023-05-20T04:24:32;99840.10;;;24.75;32.84
48718;BME280;34521;33.042;-96.586;2023-05-20T04:26:57;99842.28;;;24.79;32.50
48718;BME280;34521;33.042;-96.586;2023-05-20T04:29:22;99852.78;;;24.81;32.48
48718;BME280;34521;33.042;-96.586;2023-05-20T04:31:48;99866.63;;;24.48;32.97
48718;BME280;34521;33.042;-96.586;2023-05-20T04:34:12;99878.95;;;24.65;32.81
48718;BME280;34521;33.042;-96.586;2023-05-20T04:36:37;99891.37;;;22.05;35.87
48718;BME280;34521;33.042;-96.586;2023-05-20T04:39:02;99894.97;;;22.75;34.20
48718;BME280;34521;33.042;-96.586;2023-05-20T04:41:27;99896.54;;;23.08;34.21
48718;BME280;34521;33.042;-96.586;2023-05-20T04:43:52;99896.47;;;23.72;33.06
48718;BME280;34521;33.042;-96.586;2023-05-20T04:46:17;99896.17;;;23.99;32.82
48718;BME280;34521;33.042;-96.586;2023-05-20T04:48:42;99891.33;;;23.97;32.71
48718;BME280;34521;33.042;-96.586;2023-05-20T04:51:08;99884.70;;;24.59;32.25
48718;BME280;34521;33.042;-96.586;2023-05-20T04:53:32;99885.92;;;24.45;32.19
48718;BME280;34521;33.042;-96.586;2023-05-20T04:55:58;99881.95;;;24.80;31.86
48718;BME280;34521;33.042;-96.586;2023-05-20T04:58:23;99881.94;;;24.90;31.80
48718;BME280;34521;33.042;-96.586;2023-05-20T05:00:47;99881.20;;;24.92;31.88
48718;BME280;34521;33.042;-96.586;2023-05-20T05:03:13;99882.87;;;24.89;31.96
48718;BME280;34521;33.042;-96.586;2023-05-20T05:05:38;99883.29;;;24.76;31.94
48718;BME280;34521;33.042;-96.586;2023-05-20T05:08:03;99900.45;;;22.37;35.10
48718;BME280;34521;33.042;-96.586;2023-05-20T05:10:28;99912.55;;;22.58;34.24
48718;BME280;34521;33.042;-96.586;2023-05-20T05:12:53;99917.09;;;23.31;33.36
48718;BME280;34521;33.042;-96.586;2023-05-20T05:15:18;99920.05;;;24.06;32.54
48718;BME280;34521;33.042;-96.586;2023-05-20T05:17:43;99925.03;;;23.89;32.52
48718;BME280;34521;33.042;-96.586;2023-05-20T05:20:09;99929.16;;;24.13;32.38
48718;BME280;34521;33.042;-96.586;2023-05-20T05:22:33;99934.12;;;24.23;32.02
48718;BME280;34521;33.042;-96.586;2023-05-20T05:24:58;99945.71;;;24.49;31.80
48718;BME280;34521;33.042;-96.586;2023-05-20T05:27:23;99956.62;;;24.68;31.67
48718;BME280;34521;33.042;-96.586;2023-05-20T05:29:48;99966.80;;;24.86;31.50
48718;BME280;34521;33.042;-96.586;2023-05-20T05:32:13;99974.40;;;24.64;31.59
48718;BME280;34521;33.042;-96.586;2023-05-20T05:34:38;99981.43;;;24.70;31.61
48718;BME280;34521;33.042;-96.586;2023-05-20T05:37:03;99987.73;;;24.73;31.67
48718;BME280;34521;33.042;-96.586;2023-05-20T05:39:28;99993.14;;;24.95;31.76
48718;BME280;34521;33.042;-96.586;2023-05-20T05:41:53;100002.79;;;24.36;32.60
48718;BME280;34521;33.042;-96.586;2023-05-20T05:44:18;100016.86;;;22.17;34.98
48718;BME280;34521;33.042;-96.586;2023-05-20T05:46:44;100020.84;;;22.50;33.85
48718;BME280;34521;33.042;-96.586;2023-05-20T05:49:09;100030.22;;;23.23;33.51
48718;BME280;34521;33.042;-96.586;2023-05-20T05:51:34;100029.17;;;23.80;32.50
48718;BME280;34521;33.042;-96.586;2023-05-20T05:53:59;100029.46;;;23.71;32.48
48718;BME280;34521;33.042;-96.586;2023-05-20T05:56:24;100035.35;;;23.97;32.20
48718;BME280;34521;33.042;-96.586;2023-05-20T05:58:49;100047.85;;;24.33;31.86
48718;BME280;34521;33.042;-96.586;2023-05-20T06:01:14;100056.00;;;24.34;31.92
48718;BME280;34521;33.042;-96.586;2023-05-20T06:03:39;100050.55;;;23.64;33.46
48718;BME280;34521;33.042;-96.586;2023-05-20T06:06:05;100060.15;;;22.28;37.01
48718;BME280;34521;33.042;-96.586;2023-05-20T06:08:29;100055.44;;;22.30;38.42
48718;BME280;34521;33.042;-96.586;2023-05-20T06:10:54;100054.58;;;22.21;39.34
48718;BME280;34521;33.042;-96.586;2023-05-20T06:13:19;100043.70;;;23.82;36.36
48718;BME280;34521;33.042;-96.586;2023-05-20T06:15:44;100036.45;;;24.30;35.65
48718;BME280;34521;33.042;-96.586;2023-05-20T06:18:09;100026.62;;;23.98;35.38
48718;BME280;34521;33.042;-96.586;2023-05-20T06:20:35;100025.02;;;24.56;34.82
48718;BME280;34521;33.042;-96.586;2023-05-20T06:23:00;100027.25;;;24.68;34.21
48718;BME280;34521;33.042;-96.586;2023-05-20T06:25:25;100030.32;;;24.76;33.95
48718;BME280;34521;33.042;-96.586;2023-05-20T06:27:50;100021.64;;;24.77;33.78
48718;BME280;34521;33.042;-96.586;2023-05-20T06:30:15;100021.18;;;24.75;33.78
48718;BME280;34521;33.042;-96.586;2023-05-20T06:32:40;100030.33;;;24.79;33.67
48718;BME280;34521;33.042;-96.586;2023-05-20T06:35:05;100043.85;;;21.65;36.79
48718;BME280;34521;33.042;-96.586;2023-05-20T06:37:30;100045.32;;;22.29;35.58
48718;BME280;34521;33.042;-96.586;2023-05-20T06:39:55;100051.75;;;22.92;35.10
48718;BME280;34521;33.042;-96.586;2023-05-20T06:42:20;100051.83;;;23.55;34.10
48718;BME280;34521;33.042;-96.586;2023-05-20T06:44:45;100048.24;;;23.82;33.84
48718;BME280;34521;33.042;-96.586;2023-05-20T06:47:10;100048.30;;;24.10;33.25
48718;BME280;34521;33.042;-96.586;2023-05-20T06:49:35;100049.75;;;24.38;32.97
48718;BME280;34521;33.042;-96.586;2023-05-20T06:52:00;100050.54;;;24.20;33.03
48718;BME280;34521;33.042;-96.586;2023-05-20T06:54:25;100047.48;;;24.39;32.84
48718;BME280;34521;33.042;-96.586;2023-05-20T06:56:50;100048.26;;;24.25;33.08
48718;BME280;34521;33.042;-96.586;2023-05-20T06:59:15;100049.94;;;24.47;32.92
48718;BME280;34521;33.042;-96.586;2023-05-20T07:01:40;100048.90;;;23.21;35.49
48718;BME280;34521;33.042;-96.586;2023-05-20T07:04:05;100048.36;;;22.31;38.33
48718;BME280;34521;33.042;-96.586;2023-05-20T07:06:30;100052.03;;;22.43;39.48
48718;BME280;34521;33.042;-96.586;2023-05-20T07:08:55;100054.08;;;22.08;40.68
48718;BME280;34521;33.042;-96.586;2023-05-20T07:11:20;100055.35;;;23.33;37.89
48718;BME280;34521;33.042;-96.586;2023-05-20T07:13:45;100047.87;;;23.32;37.23
48718;BME280;34521;33.042;-96.586;2023-05-20T07:16:10;100050.35;;;23.89;36.65
48718;BME280;34521;33.042;-96.586;2023-05-20T07:18:35;100057.46;;;23.92;36.19
48718;BME280;34521;33.042;-96.586;2023-05-20T07:21:00;100058.72;;;24.30;35.58
48718;BME280;34521;33.042;-96.586;2023-05-20T07:23:25;100063.31;;;24.46;35.10
48718;BME280;34521;33.042;-96.586;2023-05-20T07:25:51;100063.30;;;24.49;34.94
48718;BME280;34521;33.042;-96.586;2023-05-20T07:28:16;100065.95;;;24.46;34.92
48718;BME280;34521;33.042;-96.586;2023-05-20T07:30:41;100072.13;;;24.29;34.88
48718;BME280;34521;33.042;-96.586;2023-05-20T07:33:05;100086.13;;;24.42;34.91
48718;BME280;34521;33.042;-96.586;2023-05-20T07:35:30;100086.27;;;21.58;37.80
48718;BME280;34521;33.042;-96.586;2023-05-20T07:37:55;100091.72;;;22.22;35.85
48718;BME280;34521;33.042;-96.586;2023-05-20T07:40:21;100103.96;;;23.05;35.25
48718;BME280;34521;33.042;-96.586;2023-05-20T07:42:46;100096.91;;;23.77;34.38
48718;BME280;34521;33.042;-96.586;2023-05-20T07:45:11;100078.92;;;23.88;34.06
48718;BME280;34521;33.042;-96.586;2023-05-20T07:47:36;100069.21;;;24.10;34.18
48718;BME280;34521;33.042;-96.586;2023-05-20T07:50:01;100063.10;;;23.93;33.88
48718;BME280;34521;33.042;-96.586;2023-05-20T07:52:26;100058.82;;;23.89;33.96
48718;BME280;34521;33.042;-96.586;2023-05-20T07:54:51;100056.99;;;24.07;33.81
48718;BME280;34521;33.042;-96.586;2023-05-20T07:57:15;100055.39;;;24.31;33.56
48718;BME280;34521;33.042;-96.586;2023-05-20T07:59:41;100052.07;;;24.10;33.84
48718;BME280;34521;33.042;-96.586;2023-05-20T08:02:06;100060.94;;;24.30;33.65
48718;BME280;34521;33.042;-96.586;2023-05-20T08:04:31;100062.68;;;24.36;33.64
48718;BME280;34521;33.042;-96.586;2023-05-20T08:06:56;100071.77;;;22.14;38.78
48718;BME280;34521;33.042;-96.586;2023-05-20T08:09:21;100074.60;;;23.15;38.10
48718;BME280;34521;33.042;-96.586;2023-05-20T08:11:46;100078.71;;;23.37;36.88
48718;BME280;34521;33.042;-96.586;2023-05-20T08:14:11;100067.10;;;23.97;36.38
48718;BME280;34521;33.042;-96.586;2023-05-20T08:16:36;100063.41;;;23.75;35.91
48718;BME280;34521;33.042;-96.586;2023-05-20T08:19:01;100071.93;;;24.33;35.65
48718;BME280;34521;33.042;-96.586;2023-05-20T08:21:26;100080.35;;;24.14;35.20
48718;BME280;34521;33.042;-96.586;2023-05-20T08:23:51;100087.46;;;24.24;35.26
48718;BME280;34521;33.042;-96.586;2023-05-20T08:26:16;100088.39;;;24.30;35.26
48718;BME280;34521;33.042;-96.586;2023-05-20T08:28:41;100086.37;;;24.28;35.21
48718;BME280;34521;33.042;-96.586;2023-05-20T08:31:06;100087.32;;;22.90;36.21
48718;BME280;34521;33.042;-96.586;2023-05-20T08:33:31;100095.52;;;20.87;38.45
48718;BME280;34521;33.042;-96.586;2023-05-20T08:35:57;100094.33;;;21.85;36.55
48718;BME280;34521;33.042;-96.586;2023-05-20T08:38:22;100097.46;;;22.92;35.40
48718;BME280;34521;33.042;-96.586;2023-05-20T08:40:51;100094.07;;;23.75;34.33
48718;BME280;34521;33.042;-96.586;2023-05-20T08:43:12;100091.48;;;23.55;34.40
48718;BME280;34521;33.042;-96.586;2023-05-20T08:45:37;100088.02;;;23.89;34.37
48718;BME280;34521;33.042;-96.586;2023-05-20T08:48:03;100080.60;;;24.04;34.22
48718;BME280;34521;33.042;-96.586;2023-05-20T08:50:27;100070.70;;;23.91;34.16
48718;BME280;34521;33.042;-96.586;2023-05-20T08:52:53;100068.08;;;24.03;34.04
48718;BME280;34521;33.042;-96.586;2023-05-20T08:55:24;100061.41;;;23.87;34.00
48718;BME280;34521;33.042;-96.586;2023-05-20T08:57:42;100054.71;;;23.95;33.97
48718;BME280;34521;33.042;-96.586;2023-05-20T09:00:08;100045.00;;;23.85;35.08
48718;BME280;34521;33.042;-96.586;2023-05-20T09:02:32;100055.37;;;22.05;39.21
48718;BME280;34521;33.042;-96.586;2023-05-20T09:04:57;100056.09;;;20.89;41.67
48718;BME280;34521;33.042;-96.586;2023-05-20T09:07:27;100062.27;;;20.88;42.75
48718;BME280;34521;33.042;-96.586;2023-05-20T09:09:47;100063.01;;;23.53;38.15
48718;BME280;34521;33.042;-96.586;2023-05-20T09:12:12;100067.54;;;23.51;37.68
48718;BME280;34521;33.042;-96.586;2023-05-20T09:14:37;100060.93;;;23.62;37.02
48718;BME280;34521;33.042;-96.586;2023-05-20T09:17:04;100065.59;;;23.80;36.66
48718;BME280;34521;33.042;-96.586;2023-05-20T09:19:27;100062.86;;;24.36;36.13
48718;BME280;34521;33.042;-96.586;2023-05-20T09:21:53;100062.79;;;24.18;36.00
48718;BME280;34521;33.042;-96.586;2023-05-20T09:24:22;100062.72;;;24.04;35.74
48718;BME280;34521;33.042;-96.586;2023-05-20T09:26:42;100068.51;;;24.18;35.54
48718;BME280;34521;33.042;-96.586;2023-05-20T09:29:07;100075.40;;;24.20;35.41
48718;BME280;34521;33.042;-96.586;2023-05-20T09:31:32;100074.38;;;24.13;35.44
48718;BME280;34521;33.042;-96.586;2023-05-20T09:33:57;100083.64;;;24.45;35.29
48718;BME280;34521;33.042;-96.586;2023-05-20T09:36:23;100090.50;;;21.11;38.54
48718;BME280;34521;33.042;-96.586;2023-05-20T09:38:50;100098.17;;;22.00;36.73
48718;BME280;34521;33.042;-96.586;2023-05-20T09:41:13;100095.99;;;22.87;36.07
48718;BME280;34521;33.042;-96.586;2023-05-20T09:43:39;100098.35;;;23.50;34.84
48718;BME280;34521;33.042;-96.586;2023-05-20T09:46:03;100099.17;;;23.17;34.75
48718;BME280;34521;33.042;-96.586;2023-05-20T09:48:29;100096.92;;;23.54;34.63
48718;BME280;34521;33.042;-96.586;2023-05-20T09:50:53;100088.40;;;23.55;34.35
48718;BME280;34521;33.042;-96.586;2023-05-20T09:53:18;100092.78;;;23.74;34.19
48718;BME280;34521;33.042;-96.586;2023-05-20T09:55:43;100093.90;;;24.29;34.16
48718;BME280;34521;33.042;-96.586;2023-05-20T09:58:09;100101.95;;;22.61;36.70
48718;BME280;34521;33.042;-96.586;2023-05-20T10:00:33;100097.56;;;21.34;40.50
48718;BME280;34521;33.042;-96.586;2023-05-20T10:02:59;100095.17;;;21.00;42.04
48718;BME280;34521;33.042;-96.586;2023-05-20T10:05:25;100104.26;;;20.71;42.56
48718;BME280;34521;33.042;-96.586;2023-05-20T10:08:07;100103.23;;;22.27;40.02
48718;BME280;34521;33.042;-96.586;2023-05-20T10:10:24;100110.15;;;23.51;38.12
48718;BME280;34521;33.042;-96.586;2023-05-20T10:12:44;100111.55;;;23.54;37.75
48718;BME280;34521;33.042;-96.586;2023-05-20T10:15:11;100103.15;;;24.14;36.82
48718;BME280;34521;33.042;-96.586;2023-05-20T10:17:34;100105.24;;;23.69;36.64
48718;BME280;34521;33.042;-96.586;2023-05-20T10:19:57;100116.26;;;23.66;36.55
48718;BME280;34521;33.042;-96.586;2023-05-20T10:22:26;100127.53;;;23.68;36.36
48718;BME280;34521;33.042;-96.586;2023-05-20T10:24:44;100126.75;;;23.86;35.97
48718;BME280;34521;33.042;-96.586;2023-05-20T10:27:10;100130.70;;;24.26;35.39
48718;BME280;34521;33.042;-96.586;2023-05-20T10:29:42;100133.81;;;24.51;34.98
48718;BME280;34521;33.042;-96.586;2023-05-20T10:31:59;100134.71;;;25.02;34.55
48718;BME280;34521;33.042;-96.586;2023-05-20T10:34:24;100129.01;;;24.80;34.44
48718;BME280;34521;33.042;-96.586;2023-05-20T10:36:57;100126.04;;;24.95;34.25
48718;BME280;34521;33.042;-96.586;2023-05-20T10:39:15;100130.33;;;24.65;34.60
48718;BME280;34521;33.042;-96.586;2023-05-20T10:41:39;100133.40;;;24.77;34.40
48718;BME280;34521;33.042;-96.586;2023-05-20T10:44:05;100133.72;;;24.41;34.86
48718;BME280;34521;33.042;-96.586;2023-05-20T10:46:30;100139.28;;;20.81;38.62
48718;BME280;34521;33.042;-96.586;2023-05-20T10:48:54;100140.53;;;21.83;36.72
48718;BME280;34521;33.042;-96.586;2023-05-20T10:51:20;100141.84;;;22.99;35.59
48718;BME280;34521;33.042;-96.586;2023-05-20T10:53:45;100142.51;;;23.28;35.16
48718;BME280;34521;33.042;-96.586;2023-05-20T10:56:15;100145.47;;;23.43;34.74
48718;BME280;34521;33.042;-96.586;2023-05-20T10:58:37;100157.43;;;23.74;34.37
48718;BME280;34521;33.042;-96.586;2023-05-20T11:01:01;100171.59;;;23.53;35.51
48718;BME280;34521;33.042;-96.586;2023-05-20T11:03:24;100183.72;;;20.88;41.03
48718;BME280;34521;33.042;-96.586;2023-05-20T11:05:50;100187.80;;;20.60;42.94
48718;BME280;34521;33.042;-96.586;2023-05-20T11:08:15;100184.13;;;22.82;37.87
48718;BME280;34521;33.042;-96.586;2023-05-20T11:10:41;100185.59;;;23.18;37.50
48718;BME280;34521;33.042;-96.586;2023-05-20T11:13:05;100185.16;;;23.60;36.87
48718;BME280;34521;33.042;-96.586;2023-05-20T11:15:31;100187.70;;;23.61;36.42
48718;BME280;34521;33.042;-96.586;2023-05-20T11:17:59;100185.27;;;23.91;35.97
48718;BME280;34521;33.042;-96.586;2023-05-20T11:20:21;100190.05;;;23.72;36.10
48718;BME280;34521;33.042;-96.586;2023-05-20T11:22:46;100201.46;;;23.52;35.91
48718;BME280;34521;33.042;-96.586;2023-05-20T11:25:12;100208.51;;;23.67;35.70
48718;BME280;34521;33.042;-96.586;2023-05-20T11:27:39;100208.68;;;23.97;35.23
48718;BME280;34521;33.042;-96.586;2023-05-20T11:30:01;100205.53;;;24.88;34.63
48718;BME280;34521;33.042;-96.586;2023-05-20T11:32:27;100205.89;;;24.13;34.90
48718;BME280;34521;33.042;-96.586;2023-05-20T11:34:53;100210.81;;;24.02;35.06
48718;BME280;34521;33.042;-96.586;2023-05-20T11:37:18;100221.77;;;24.54;34.63
48718;BME280;34521;33.042;-96.586;2023-05-20T11:39:43;100222.15;;;24.07;34.89
48718;BME280;34521;33.042;-96.586;2023-05-20T11:42:08;100222.03;;;21.25;37.73
48718;BME280;34521;33.042;-96.586;2023-05-20T11:44:34;100216.11;;;21.00;38.20
48718;BME280;34521;33.042;-96.586;2023-05-20T11:47:00;100219.60;;;21.70;36.92
48718;BME280;34521;33.042;-96.586;2023-05-20T11:49:24;100220.18;;;23.20;35.13
48718;BME280;34521;33.042;-96.586;2023-05-20T11:51:50;100222.44;;;23.43;34.86
48718;BME280;34521;33.042;-96.586;2023-05-20T11:54:15;100223.69;;;23.34;34.73
48718;BME280;34521;33.042;-96.586;2023-05-20T11:56:40;100231.67;;;23.64;34.39
48718;BME280;34521;33.042;-96.586;2023-05-20T11:59:07;100232.05;;;21.00;40.52
48718;BME280;34521;33.042;-96.586;2023-05-20T12:01:32;100232.89;;;21.23;40.86
48718;BME280;34521;33.042;-96.586;2023-05-20T12:03:56;100240.31;;;21.23;41.34
48718;BME280;34521;33.042;-96.586;2023-05-20T12:06:22;100238.07;;;22.64;38.66
48718;BME280;34521;33.042;-96.586;2023-05-20T12:08:47;100238.81;;;22.94;37.94
48718;BME280;34521;33.042;-96.586;2023-05-20T12:11:12;100242.52;;;23.37;37.25
48718;BME280;34521;33.042;-96.586;2023-05-20T12:13:38;100246.43;;;23.83;36.57
48718;BME280;34521;33.042;-96.586;2023-05-20T12:16:04;100238.44;;;24.03;35.82
48718;BME280;34521;33.042;-96.586;2023-05-20T12:18:28;100234.49;;;23.89;36.17
48718;BME280;34521;33.042;-96.586;2023-05-20T12:20:54;100238.60;;;24.07;35.54
48718;BME280;34521;33.042;-96.586;2023-05-20T12:23:19;100237.17;;;24.23;35.19